sensor_id;sensor_type;location;lat;lon;timestamp;P1;durP1;ratioP1;P2;durP2;ratioP2
61477;SDS011;47345;52.334;10.392;2023-02-14T00:01:19;6.60;;;4.30;;
61477;SDS011;47345;52.334;10.392;2023-02-14T00:03:51;4.70;;;3.70;;
61477;SDS011;47345;52.334;10.392;2023-02-14T00:06:29;6.40;;;4.50;;
61477;SDS011;47345;52.334;10.392;2023-02-14T00:09:03;6.00;;;4.10;;
61477;SDS011;47345;52.334;10.392;2023-02-14T00:11:36;6.70;;;4.40;;
61477;SDS011;47345;52.334;10.392;2023-02-14T00:14:09;6.90;;;4.70;;
61477;SDS011;47345;52.334;10.392;2023-02-14T00:17:00;6.70;;;3.80;;
61477;SDS011;47345;52.334;10.392;2023-02-14T00:19:33;5.60;;;4.00;;
61477;SDS011;47345;52.334;10.392;2023-02-14T00:22:06;5.30;;;3.70;;
61477;SDS011;47345;52.334;10.392;2023-02-14T00:24:40;6.20;;;4.50;;
61477;SDS011;47345;52.334;10.392;2023-02-14T00:27:13;6.10;;;4.00;;
61477;SDS011;47345;52.334;10.392;2023-02-14T00:29:45;5.40;;;4.10;;
61477;SDS011;47345;52.334;10.392;2023-02-14T00:32:18;5.20;;;3.80;;
61477;SDS011;47345;52.334;10.392;2023-02-14T00:34:52;5.80;;;4.20;;
61477;SDS011;47345;52.334;10.392;2023-02-14T00:43:01;4.60;;;3.60;;
61477;SDS011;47345;52.334;10.392;2023-02-14T00:45:33;3.90;;;3.50;;
61477;SDS011;47345;52.334;10.392;2023-02-14T00:48:07;5.20;;;3.80;;
61477;SDS011;47345;52.334;10.392;2023-02-14T00:50:39;6.00;;;4.00;;
61477;SDS011;47345;52.334;10.392;2023-02-14T00:53:13;5.20;;;3.80;;
61477;SDS011;47345;52.334;10.392;2023-02-14T00:55:46;5.70;;;4.20;;
61477;SDS011;47345;52.334;10.392;2023-02-14T00:58:17;5.80;;;4.50;;
61477;SDS011;47345;52.334;10.392;2023-02-14T01:00:50;5.80;;;4.10;;
61477;SDS011;47345;52.334;10.392;2023-02-14T01:03:22;5.80;;;4.10;;
61477;SDS011;47345;52.334;10.392;2023-02-14T01:05:53;6.00;;;4.40;;
61477;SDS011;47345;52.334;10.392;2023-02-14T01:08:25;7.00;;;4.70;;
61477;SDS011;47345;52.334;10.392;2023-02-14T01:10:57;8.20;;;5.00;;
61477;SDS011;47345;52.334;10.392;2023-02-14T01:19:30;3.50;;;2.90;;
61477;SDS011;47345;52.334;10.392;2023-02-14T01:32:15;6.60;;;3.90;;
61477;SDS011;47345;52.334;10.392;2023-02-14T01:34:48;4.50;;;3.40;;
61477;SDS011;47345;52.334;10.392;2023-02-14T01:37:20;5.10;;;4.00;;
61477;SDS011;47345;52.334;10.392;2023-02-14T01:39:51;7.80;;;4.50;;
61477;SDS011;47345;52.334;10.392;2023-02-14T01:42:24;6.30;;;4.80;;
61477;SDS011;47345;52.334;10.392;2023-02-14T01:44:59;7.40;;;5.20;;
61477;SDS011;47345;52.334;10.392;2023-02-14T01:47:37;6.00;;;4.30;;
61477;SDS011;47345;52.334;10.392;2023-02-14T01:50:15;5.90;;;4.60;;
61477;SDS011;47345;52.334;10.392;2023-02-14T01:52:50;4.60;;;3.70;;
61477;SDS011;47345;52.334;10.392;2023-02-14T01:55:27;6.10;;;4.20;;
61477;SDS011;47345;52.334;10.392;2023-02-14T01:58:02;5.80;;;4.40;;
61477;SDS011;47345;52.334;10.392;2023-02-14T02:00:38;6.10;;;4.50;;
61477;SDS011;47345;52.334;10.392;2023-02-14T02:03:42;5.60;;;4.30;;
61477;SDS011;47345;52.334;10.392;2023-02-14T02:06:18;4.60;;;3.80;;
61477;SDS011;47345;52.334;10.392;2023-02-14T02:08:52;6.40;;;4.90;;
61477;SDS011;47345;52.334;10.392;2023-02-14T02:11:30;6.40;;;4.60;;
61477;SDS011;47345;52.334;10.392;2023-02-14T02:14:01;6.00;;;4.30;;
61477;SDS011;47345;52.334;10.392;2023-02-14T02:16:41;5.90;;;4.30;;
61477;SDS011;47345;52.334;10.392;2023-02-14T02:25:42;5.70;;;4.30;;
61477;SDS011;47345;52.334;10.392;2023-02-14T02:28:40;5.90;;;4.30;;
61477;SDS011;47345;52.334;10.392;2023-02-14T02:31:39;6.30;;;4.30;;
61477;SDS011;47345;52.334;10.392;2023-02-14T02:37:37;6.90;;;4.70;;
61477;SDS011;47345;52.334;10.392;2023-02-14T02:40:19;6.80;;;4.40;;
61477;SDS011;47345;52.334;10.392;2023-02-14T02:43:00;8.00;;;5.30;;
61477;SDS011;47345;52.334;10.392;2023-02-14T02:45:43;8.80;;;5.00;;
61477;SDS011;47345;52.334;10.392;2023-02-14T02:48:43;7.90;;;4.60;;
61477;SDS011;47345;52.334;10.392;2023-02-14T02:51:23;4.70;;;4.20;;
61477;SDS011;47345;52.334;10.392;2023-02-14T02:54:22;7.10;;;5.00;;
61477;SDS011;47345;52.334;10.392;2023-02-14T02:57:04;6.70;;;4.60;;
61477;SDS011;47345;52.334;10.392;2023-02-14T02:59:47;8.40;;;5.10;;
61477;SDS011;47345;52.334;10.392;2023-02-14T03:02:22;6.10;;;4.40;;
61477;SDS011;47345;52.334;10.392;2023-02-14T03:04:59;5.40;;;4.00;;
61477;SDS011;47345;52.334;10.392;2023-02-14T03:07:35;6.90;;;4.40;;
61477;SDS011;47345;52.334;10.392;2023-02-14T03:10:10;5.70;;;4.40;;
61477;SDS011;47345;52.334;10.392;2023-02-14T03:12:55;6.70;;;4.50;;
61477;SDS011;47345;52.334;10.392;2023-02-14T03:15:50;6.10;;;4.60;;
61477;SDS011;47345;52.334;10.392;2023-02-14T03:18:46;7.80;;;3.90;;
61477;SDS011;47345;52.334;10.392;2023-02-14T03:21:46;5.00;;;3.70;;
61477;SDS011;47345;52.334;10.392;2023-02-14T03:24:28;6.30;;;3.80;;
61477;SDS011;47345;52.334;10.392;2023-02-14T03:27:09;5.70;;;4.10;;
61477;SDS011;47345;52.334;10.392;2023-02-14T03:29:48;6.90;;;3.90;;
61477;SDS011;47345;52.334;10.392;2023-02-14T03:32:35;5.00;;;3.70;;
61477;SDS011;47345;52.334;10.392;2023-02-14T03:35:13;6.60;;;4.10;;
61477;SDS011;47345;52.334;10.392;2023-02-14T03:37:53;6.50;;;4.10;;
61477;SDS011;47345;52.334;10.392;2023-02-14T03:40:30;4.20;;;3.40;;
61477;SDS011;47345;52.334;10.392;2023-02-14T03:43:07;6.90;;;4.40;;
61477;SDS011;47345;52.334;10.392;2023-02-14T03:45:44;4.30;;;3.30;;
61477;SDS011;47345;52.334;10.392;2023-02-14T03:48:20;5.40;;;3.70;;
61477;SDS011;47345;52.334;10.392;2023-02-14T03:50:56;4.00;;;3.50;;
61477;SDS011;47345;52.334;10.392;2023-02-14T03:53:30;5.70;;;4.10;;
61477;SDS011;47345;52.334;10.392;2023-02-14T03:56:07;4.90;;;3.40;;
61477;SDS011;47345;52.334;10.392;2023-02-14T03:58:43;5.00;;;3.70;;
61477;SDS011;47345;52.334;10.392;2023-02-14T04:01:19;6.90;;;3.90;;
61477;SDS011;47345;52.334;10.392;2023-02-14T04:03:54;7.80;;;4.40;;
61477;SDS011;47345;52.334;10.392;2023-02-14T04:06:28;5.00;;;4.00;;
61477;SDS011;47345;52.334;10.392;2023-02-14T04:09:01;6.80;;;4.80;;
61477;SDS011;47345;52.334;10.392;2023-02-14T04:11:34;7.30;;;4.90;;
61477;SDS011;47345;52.334;10.392;2023-02-14T04:14:06;6.10;;;4.70;;
61477;SDS011;47345;52.334;10.392;2023-02-14T04:16:41;5.40;;;4.10;;
61477;SDS011;47345;52.334;10.392;2023-02-14T04:19:31;7.10;;;4.20;;
61477;SDS011;47345;52.334;10.392;2023-02-14T04:22:03;6.00;;;3.70;;
61477;SDS011;47345;52.334;10.392;2023-02-14T04:24:37;4.80;;;3.80;;
61477;SDS011;47345;52.334;10.392;2023-02-14T04:27:10;7.10;;;4.50;;
61477;SDS011;47345;52.334;10.392;2023-02-14T04:29:43;6.40;;;4.10;;
61477;SDS011;47345;52.334;10.392;2023-02-14T04:32:18;6.70;;;4.60;;
61477;SDS011;47345;52.334;10.392;2023-02-14T04:34:52;5.40;;;3.80;;
61477;SDS011;47345;52.334;10.392;2023-02-14T04:37:26;6.20;;;3.70;;
61477;SDS011;47345;52.334;10.392;2023-02-14T04:39:58;5.30;;;3.80;;
61477;SDS011;47345;52.334;10.392;2023-02-14T04:42:31;5.50;;;3.80;;
61477;SDS011;47345;52.334;10.392;2023-02-14T04:45:04;6.40;;;4.20;;
61477;SDS011;47345;52.334;10.392;2023-02-14T04:47:38;6.00;;;4.40;;
61477;SDS011;47345;52.334;10.392;2023-02-14T04:50:10;6.20;;;4.80;;
61477;SDS011;47345;52.334;10.392;2023-02-14T04:52:43;5.50;;;4.20;;
61477;SDS011;47345;52.334;10.392;2023-02-14T04:55:17;7.20;;;4.30;;
61477;SDS011;47345;52.334;10.392;2023-02-14T04:57:50;6.20;;;4.20;;
61477;SDS011;47345;52.334;10.392;2023-02-14T05:00:23;7.70;;;4.00;;
61477;SDS011;47345;52.334;10.392;2023-02-14T05:02:56;5.30;;;4.20;;
61477;SDS011;47345;52.334;10.392;2023-02-14T05:05:31;5.80;;;4.00;;
61477;SDS011;47345;52.334;10.392;2023-02-14T05:08:05;7.00;;;5.10;;
61477;SDS011;47345;52.334;10.392;2023-02-14T05:10:37;6.50;;;5.10;;
61477;SDS011;47345;52.334;10.392;2023-02-14T05:13:10;6.20;;;4.20;;
61477;SDS011;47345;52.334;10.392;2023-02-14T05:15:44;8.90;;;5.60;;
61477;SDS011;47345;52.334;10.392;2023-02-14T05:18:17;6.60;;;4.60;;
61477;SDS011;47345;52.334;10.392;2023-02-14T05:20:49;8.10;;;4.90;;
61477;SDS011;47345;52.334;10.392;2023-02-14T05:23:23;4.80;;;4.20;;
61477;SDS011;47345;52.334;10.392;2023-02-14T05:25:55;7.80;;;5.50;;
61477;SDS011;47345;52.334;10.392;2023-02-14T05:28:26;5.50;;;4.40;;
61477;SDS011;47345;52.334;10.392;2023-02-14T05:30:57;6.80;;;5.10;;
61477;SDS011;47345;52.334;10.392;2023-02-14T05:33:30;11.60;;;5.90;;
61477;SDS011;47345;52.334;10.392;2023-02-14T05:36:03;10.90;;;7.10;;
61477;SDS011;47345;52.334;10.392;2023-02-14T05:38:35;7.80;;;5.90;;
61477;SDS011;47345;52.334;10.392;2023-02-14T05:41:08;11.80;;;6.80;;
61477;SDS011;47345;52.334;10.392;2023-02-14T05:43:40;7.50;;;5.40;;
61477;SDS011;47345;52.334;10.392;2023-02-14T05:46:14;7.40;;;5.00;;
61477;SDS011;47345;52.334;10.392;2023-02-14T05:48:46;6.70;;;5.20;;
61477;SDS011;47345;52.334;10.392;2023-02-14T05:51:18;8.30;;;5.40;;
61477;SDS011;47345;52.334;10.392;2023-02-14T05:53:50;10.30;;;5.60;;
61477;SDS011;47345;52.334;10.392;2023-02-14T05:56:23;10.30;;;6.50;;
61477;SDS011;47345;52.334;10.392;2023-02-14T05:58:56;7.90;;;5.40;;
61477;SDS011;47345;52.334;10.392;2023-02-14T06:01:28;9.20;;;5.50;;
61477;SDS011;47345;52.334;10.392;2023-02-14T06:04:01;5.80;;;4.70;;
61477;SDS011;47345;52.334;10.392;2023-02-14T06:06:33;5.10;;;4.10;;
61477;SDS011;47345;52.334;10.392;2023-02-14T06:09:06;5.00;;;4.10;;
61477;SDS011;47345;52.334;10.392;2023-02-14T06:11:39;3.50;;;3.10;;
61477;SDS011;47345;52.334;10.392;2023-02-14T06:14:12;4.00;;;3.10;;
61477;SDS011;47345;52.334;10.392;2023-02-14T06:16:45;3.00;;;2.70;;
61477;SDS011;47345;52.334;10.392;2023-02-14T06:19:17;4.80;;;3.80;;
61477;SDS011;47345;52.334;10.392;2023-02-14T06:21:49;4.60;;;3.50;;
61477;SDS011;47345;52.334;10.392;2023-02-14T06:24:22;4.80;;;3.70;;
61477;SDS011;47345;52.334;10.392;2023-02-14T06:26:55;5.60;;;4.10;;
61477;SDS011;47345;52.334;10.392;2023-02-14T06:29:31;4.30;;;3.50;;
61477;SDS011;47345;52.334;10.392;2023-02-14T06:32:04;6.60;;;4.30;;
61477;SDS011;47345;52.334;10.392;2023-02-14T06:34:36;6.30;;;4.30;;
61477;SDS011;47345;52.334;10.392;2023-02-14T06:37:09;5.10;;;4.00;;
61477;SDS011;47345;52.334;10.392;2023-02-14T06:39:41;5.70;;;4.00;;
61477;SDS011;47345;52.334;10.392;2023-02-14T06:42:14;4.60;;;3.50;;
61477;SDS011;47345;52.334;10.392;2023-02-14T06:44:48;5.30;;;3.90;;
61477;SDS011;47345;52.334;10.392;2023-02-14T06:47:21;4.20;;;3.30;;
61477;SDS011;47345;52.334;10.392;2023-02-14T06:49:53;4.90;;;3.90;;
61477;SDS011;47345;52.334;10.392;2023-02-14T06:52:27;5.70;;;3.40;;
61477;SDS011;47345;52.334;10.392;2023-02-14T06:54:59;4.90;;;3.90;;
61477;SDS011;47345;52.334;10.392;2023-02-14T06:57:31;3.80;;;3.20;;
61477;SDS011;47345;52.334;10.392;2023-02-14T07:00:05;4.20;;;3.30;;
61477;SDS011;47345;52.334;10.392;2023-02-14T07:02:39;4.60;;;3.40;;
61477;SDS011;47345;52.334;10.392;2023-02-14T07:05:11;4.20;;;3.40;;
61477;SDS011;47345;52.334;10.392;2023-02-14T07:07:46;3.80;;;3.40;;
61477;SDS011;47345;52.334;10.392;2023-02-14T07:10:20;5.20;;;3.70;;
61477;SDS011;47345;52.334;10.392;2023-02-14T07:12:53;5.50;;;3.80;;
61477;SDS011;47345;52.334;10.392;2023-02-14T07:15:27;5.50;;;4.20;;
61477;SDS011;47345;52.334;10.392;2023-02-14T07:18:01;5.70;;;4.50;;
61477;SDS011;47345;52.334;10.392;2023-02-14T07:20:36;6.60;;;4.70;;
61477;SDS011;47345;52.334;10.392;2023-02-14T07:23:09;5.90;;;4.00;;
61477;SDS011;47345;52.334;10.392;2023-02-14T07:25:42;5.00;;;4.00;;
61477;SDS011;47345;52.334;10.392;2023-02-14T07:28:15;4.70;;;3.50;;
61477;SDS011;47345;52.334;10.392;2023-02-14T07:30:47;4.60;;;4.00;;
61477;SDS011;47345;52.334;10.392;2023-02-14T07:33:19;4.50;;;3.40;;
61477;SDS011;47345;52.334;10.392;2023-02-14T07:35:53;3.80;;;3.30;;
61477;SDS011;47345;52.334;10.392;2023-02-14T07:38:26;4.10;;;3.60;;
61477;SDS011;47345;52.334;10.392;2023-02-14T07:40:59;4.80;;;3.60;;
61477;SDS011;47345;52.334;10.392;2023-02-14T07:43:34;3.70;;;3.30;;
61477;SDS011;47345;52.334;10.392;2023-02-14T07:46:09;3.90;;;3.50;;
61477;SDS011;47345;52.334;10.392;2023-02-14T07:48:41;4.90;;;4.00;;
61477;SDS011;47345;52.334;10.392;2023-02-14T07:51:14;5.00;;;3.60;;
61477;SDS011;47345;52.334;10.392;2023-02-14T07:53:47;4.70;;;3.70;;
61477;SDS011;47345;52.334;10.392;2023-02-14T07:56:20;5.50;;;3.90;;
61477;SDS011;47345;52.334;10.392;2023-02-14T07:58:52;4.70;;;3.80;;
61477;SDS011;47345;52.334;10.392;2023-02-14T08:01:24;4.20;;;3.70;;
61477;SDS011;47345;52.334;10.392;2023-02-14T08:03:57;5.10;;;3.90;;
61477;SDS011;47345;52.334;10.392;2023-02-14T08:06:28;3.60;;;3.00;;
61477;SDS011;47345;52.334;10.392;2023-02-14T08:09:00;4.20;;;3.40;;
61477;SDS011;47345;52.334;10.392;2023-02-14T08:11:34;6.10;;;4.10;;
61477;SDS011;47345;52.334;10.392;2023-02-14T08:14:24;4.10;;;3.50;;
61477;SDS011;47345;52.334;10.392;2023-02-14T08:16:57;4.70;;;3.60;;
61477;SDS011;47345;52.334;10.392;2023-02-14T08:19:30;5.80;;;4.00;;
61477;SDS011;47345;52.334;10.392;2023-02-14T08:22:03;5.40;;;3.90;;
61477;SDS011;47345;52.334;10.392;2023-02-14T08:24:36;7.30;;;3.80;;
61477;SDS011;47345;52.334;10.392;2023-02-14T08:27:11;4.60;;;3.70;;
61477;SDS011;47345;52.334;10.392;2023-02-14T08:29:44;4.50;;;3.60;;
61477;SDS011;47345;52.334;10.392;2023-02-14T08:32:16;5.50;;;3.90;;
61477;SDS011;47345;52.334;10.392;2023-02-14T08:34:50;5.20;;;3.70;;
61477;SDS011;47345;52.334;10.392;2023-02-14T08:37:24;7.20;;;4.40;;
61477;SDS011;47345;52.334;10.392;2023-02-14T08:39:56;5.80;;;4.20;;
61477;SDS011;47345;52.334;10.392;2023-02-14T08:42:27;4.30;;;3.20;;
61477;SDS011;47345;52.334;10.392;2023-02-14T08:45:00;3.40;;;3.10;;
61477;SDS011;47345;52.334;10.392;2023-02-14T08:47:33;4.80;;;4.00;;
61477;SDS011;47345;52.334;10.392;2023-02-14T08:50:08;5.10;;;3.90;;
61477;SDS011;47345;52.334;10.392;2023-02-14T08:52:43;6.80;;;4.10;;
61477;SDS011;47345;52.334;10.392;2023-02-14T08:55:15;4.70;;;4.00;;
61477;SDS011;47345;52.334;10.392;2023-02-14T08:57:47;4.50;;;3.60;;
61477;SDS011;47345;52.334;10.392;2023-02-14T09:00:20;5.10;;;3.80;;
61477;SDS011;47345;52.334;10.392;2023-02-14T09:02:53;5.50;;;4.00;;
61477;SDS011;47345;52.334;10.392;2023-02-14T09:05:27;5.20;;;3.60;;
61477;SDS011;47345;52.334;10.392;2023-02-14T09:08:00;4.70;;;3.80;;
61477;SDS011;47345;52.334;10.392;2023-02-14T09:10:33;7.70;;;5.10;;
61477;SDS011;47345;52.334;10.392;2023-02-14T09:13:06;5.50;;;4.30;;
61477;SDS011;47345;52.334;10.392;2023-02-14T09:15:39;4.80;;;3.90;;
61477;SDS011;47345;52.334;10.392;2023-02-14T09:18:13;5.70;;;3.70;;
61477;SDS011;47345;52.334;10.392;2023-02-14T09:20:45;6.90;;;4.20;;
61477;SDS011;47345;52.334;10.392;2023-02-14T09:23:18;5.60;;;4.50;;
61477;SDS011;47345;52.334;10.392;2023-02-14T09:25:51;9.40;;;4.50;;
61477;SDS011;47345;52.334;10.392;2023-02-14T09:28:29;5.60;;;4.10;;
61477;SDS011;47345;52.334;10.392;2023-02-14T09:31:06;7.30;;;4.90;;
61477;SDS011;47345;52.334;10.392;2023-02-14T09:33:42;6.80;;;4.40;;
61477;SDS011;47345;52.334;10.392;2023-02-14T09:36:34;5.10;;;3.80;;
61477;SDS011;47345;52.334;10.392;2023-02-14T09:39:07;8.50;;;4.50;;
61477;SDS011;47345;52.334;10.392;2023-02-14T09:41:46;7.50;;;5.10;;
61477;SDS011;47345;52.334;10.392;2023-02-14T09:44:35;5.40;;;4.60;;
61477;SDS011;47345;52.334;10.392;2023-02-14T09:47:14;8.20;;;4.90;;
61477;SDS011;47345;52.334;10.392;2023-02-14T09:49:55;6.00;;;4.50;;
61477;SDS011;47345;52.334;10.392;2023-02-14T09:52:29;8.00;;;5.00;;
61477;SDS011;47345;52.334;10.392;2023-02-14T09:55:02;10.60;;;6.10;;
61477;SDS011;47345;52.334;10.392;2023-02-14T09:57:57;8.20;;;5.50;;
61477;SDS011;47345;52.334;10.392;2023-02-14T10:00:39;7.40;;;5.60;;
61477;SDS011;47345;52.334;10.392;2023-02-14T10:03:30;6.70;;;4.90;;
61477;SDS011;47345;52.334;10.392;2023-02-14T10:06:21;7.20;;;5.10;;
61477;SDS011;47345;52.334;10.392;2023-02-14T10:09:07;10.10;;;5.90;;
61477;SDS011;47345;52.334;10.392;2023-02-14T10:11:46;7.60;;;5.40;;
61477;SDS011;47345;52.334;10.392;2023-02-14T10:14:20;7.30;;;4.90;;
61477;SDS011;47345;52.334;10.392;2023-02-14T10:16:58;9.50;;;5.50;;
61477;SDS011;47345;52.334;10.392;2023-02-14T10:19:34;9.40;;;6.20;;
61477;SDS011;47345;52.334;10.392;2023-02-14T10:22:11;8.60;;;4.70;;
61477;SDS011;47345;52.334;10.392;2023-02-14T10:24:46;6.80;;;4.90;;
61477;SDS011;47345;52.334;10.392;2023-02-14T10:27:25;6.60;;;4.60;;
61477;SDS011;47345;52.334;10.392;2023-02-14T10:30:02;6.40;;;4.80;;
61477;SDS011;47345;52.334;10.392;2023-02-14T10:32:46;7.30;;;5.00;;
61477;SDS011;47345;52.334;10.392;2023-02-14T10:35:28;7.00;;;5.20;;
61477;SDS011;47345;52.334;10.392;2023-02-14T10:38:07;6.80;;;5.30;;
61477;SDS011;47345;52.334;10.392;2023-02-14T10:44:00;6.30;;;4.70;;
61477;SDS011;47345;52.334;10.392;2023-02-14T10:46:43;8.50;;;5.20;;
61477;SDS011;47345;52.334;10.392;2023-02-14T10:49:28;9.40;;;6.10;;
61477;SDS011;47345;52.334;10.392;2023-02-14T10:52:14;10.10;;;5.60;;
61477;SDS011;47345;52.334;10.392;2023-02-14T10:54:54;7.90;;;5.50;;
61477;SDS011;47345;52.334;10.392;2023-02-14T10:57:30;8.90;;;5.70;;
61477;SDS011;47345;52.334;10.392;2023-02-14T11:00:07;8.40;;;5.80;;
61477;SDS011;47345;52.334;10.392;2023-02-14T11:02:47;10.50;;;6.10;;
61477;SDS011;47345;52.334;10.392;2023-02-14T11:05:27;9.50;;;6.40;;
61477;SDS011;47345;52.334;10.392;2023-02-14T11:08:13;9.10;;;5.80;;
61477;SDS011;47345;52.334;10.392;2023-02-14T11:10:48;9.60;;;5.70;;
61477;SDS011;47345;52.334;10.392;2023-02-14T11:13:35;8.20;;;5.40;;
61477;SDS011;47345;52.334;10.392;2023-02-14T11:16:08;9.20;;;6.00;;
61477;SDS011;47345;52.334;10.392;2023-02-14T11:18:48;7.40;;;5.40;;
61477;SDS011;47345;52.334;10.392;2023-02-14T11:21:49;10.20;;;6.40;;
61477;SDS011;47345;52.334;10.392;2023-02-14T11:24:28;7.80;;;5.30;;
61477;SDS011;47345;52.334;10.392;2023-02-14T11:27:03;8.80;;;6.10;;
61477;SDS011;47345;52.334;10.392;2023-02-14T11:29:46;12.10;;;6.10;;
61477;SDS011;47345;52.334;10.392;2023-02-14T11:32:21;10.60;;;6.30;;
61477;SDS011;47345;52.334;10.392;2023-02-14T11:34:57;10.10;;;5.90;;
61477;SDS011;47345;52.334;10.392;2023-02-14T11:37:35;11.40;;;6.30;;
61477;SDS011;47345;52.334;10.392;2023-02-14T11:40:24;9.40;;;5.90;;
61477;SDS011;47345;52.334;10.392;2023-02-14T11:42:59;8.50;;;5.80;;
61477;SDS011;47345;52.334;10.392;2023-02-14T11:45:49;12.00;;;6.40;;
61477;SDS011;47345;52.334;10.392;2023-02-14T11:48:40;11.90;;;7.40;;
61477;SDS011;47345;52.334;10.392;2023-02-14T11:51:27;10.90;;;6.00;;
61477;SDS011;47345;52.334;10.392;2023-02-14T11:54:03;10.10;;;5.80;;
61477;SDS011;47345;52.334;10.392;2023-02-14T11:56:44;9.30;;;5.40;;
61477;SDS011;47345;52.334;10.392;2023-02-14T11:59:31;9.30;;;5.70;;
61477;SDS011;47345;52.334;10.392;2023-02-14T12:02:21;10.10;;;5.70;;
61477;SDS011;47345;52.334;10.392;2023-02-14T12:04:59;9.20;;;5.90;;
61477;SDS011;47345;52.334;10.392;2023-02-14T12:07:34;8.50;;;5.90;;
61477;SDS011;47345;52.334;10.392;2023-02-14T12:10:19;11.10;;;6.00;;
61477;SDS011;47345;52.334;10.392;2023-02-14T12:13:00;10.80;;;6.00;;
61477;SDS011;47345;52.334;10.392;2023-02-14T12:15:53;9.70;;;6.30;;
61477;SDS011;47345;52.334;10.392;2023-02-14T12:18:36;10.10;;;5.70;;
61477;SDS011;47345;52.334;10.392;2023-02-14T12:21:25;7.60;;;5.60;;
61477;SDS011;47345;52.334;10.392;2023-02-14T12:24:17;9.80;;;6.20;;
61477;SDS011;47345;52.334;10.392;2023-02-14T12:27:02;12.00;;;6.00;;
61477;SDS011;47345;52.334;10.392;2023-02-14T12:29:48;9.00;;;5.70;;
61477;SDS011;47345;52.334;10.392;2023-02-14T12:32:25;9.00;;;6.00;;
61477;SDS011;47345;52.334;10.392;2023-02-14T12:35:02;9.80;;;6.20;;
61477;SDS011;47345;52.334;10.392;2023-02-14T12:37:48;8.90;;;5.70;;
61477;SDS011;47345;52.334;10.392;2023-02-14T12:40:34;8.20;;;5.20;;
61477;SDS011;47345;52.334;10.392;2023-02-14T12:43:21;10.50;;;5.90;;
61477;SDS011;47345;52.334;10.392;2023-02-14T12:46:08;8.60;;;6.00;;
61477;SDS011;47345;52.334;10.392;2023-02-14T12:48:54;9.00;;;6.00;;
61477;SDS011;47345;52.334;10.392;2023-02-14T12:51:50;8.90;;;5.40;;
61477;SDS011;47345;52.334;10.392;2023-02-14T12:54:36;9.00;;;5.80;;
61477;SDS011;47345;52.334;10.392;2023-02-14T12:57:30;11.30;;;6.50;;
61477;SDS011;47345;52.334;10.392;2023-02-14T13:00:25;8.70;;;5.90;;
61477;SDS011;47345;52.334;10.392;2023-02-14T13:03:10;7.50;;;5.30;;
61477;SDS011;47345;52.334;10.392;2023-02-14T13:06:06;9.10;;;5.10;;
61477;SDS011;47345;52.334;10.392;2023-02-14T13:08:48;7.90;;;5.60;;
61477;SDS011;47345;52.334;10.392;2023-02-14T13:11:38;9.20;;;5.60;;
61477;SDS011;47345;52.334;10.392;2023-02-14T13:14:26;10.20;;;5.80;;
61477;SDS011;47345;52.334;10.392;2023-02-14T13:17:19;7.00;;;5.70;;
61477;SDS011;47345;52.334;10.392;2023-02-14T13:20:05;11.10;;;5.20;;
61477;SDS011;47345;52.334;10.392;2023-02-14T13:22:58;9.10;;;5.80;;
61477;SDS011;47345;52.334;10.392;2023-02-14T13:25:36;10.50;;;6.10;;
61477;SDS011;47345;52.334;10.392;2023-02-14T13:28:17;10.20;;;6.80;;
61477;SDS011;47345;52.334;10.392;2023-02-14T13:30:53;10.40;;;6.40;;
61477;SDS011;47345;52.334;10.392;2023-02-14T13:33:30;8.50;;;5.50;;
61477;SDS011;47345;52.334;10.392;2023-02-14T13:36:07;7.10;;;4.70;;
61477;SDS011;47345;52.334;10.392;2023-02-14T13:38:43;7.70;;;5.10;;
61477;SDS011;47345;52.334;10.392;2023-02-14T13:41:19;7.10;;;4.90;;
61477;SDS011;47345;52.334;10.392;2023-02-14T13:43:54;8.00;;;5.40;;
61477;SDS011;47345;52.334;10.392;2023-02-14T13:46:48;7.60;;;5.10;;
61477;SDS011;47345;52.334;10.392;2023-02-14T13:49:26;7.10;;;5.10;;
61477;SDS011;47345;52.334;10.392;2023-02-14T13:52:03;12.20;;;6.00;;
61477;SDS011;47345;52.334;10.392;2023-02-14T13:54:42;8.80;;;5.40;;
61477;SDS011;47345;52.334;10.392;2023-02-14T13:57:30;11.10;;;6.20;;
61477;SDS011;47345;52.334;10.392;2023-02-14T14:03:05;8.20;;;5.20;;
61477;SDS011;47345;52.334;10.392;2023-02-14T14:05:55;10.10;;;5.50;;
61477;SDS011;47345;52.334;10.392;2023-02-14T14:14:30;10.20;;;5.80;;
61477;SDS011;47345;52.334;10.392;2023-02-14T14:17:24;12.50;;;6.00;;
61477;SDS011;47345;52.334;10.392;2023-02-14T14:19:58;9.80;;;5.80;;
61477;SDS011;47345;52.334;10.392;2023-02-14T14:22:33;6.80;;;4.80;;
61477;SDS011;47345;52.334;10.392;2023-02-14T14:25:30;10.80;;;5.50;;
61477;SDS011;47345;52.334;10.392;2023-02-14T14:28:06;10.00;;;6.10;;
61477;SDS011;47345;52.334;10.392;2023-02-14T14:30:43;8.40;;;5.10;;
61477;SDS011;47345;52.334;10.392;2023-02-14T14:33:22;9.90;;;6.00;;
61477;SDS011;47345;52.334;10.392;2023-02-14T14:35:58;8.70;;;5.20;;
61477;SDS011;47345;52.334;10.392;2023-02-14T14:38:44;7.10;;;4.80;;
61477;SDS011;47345;52.334;10.392;2023-02-14T14:41:19;8.50;;;5.50;;
61477;SDS011;47345;52.334;10.392;2023-02-14T14:43:59;7.90;;;5.00;;
61477;SDS011;47345;52.334;10.392;2023-02-14T14:46:34;6.00;;;4.50;;
61477;SDS011;47345;52.334;10.392;2023-02-14T14:49:07;8.20;;;5.00;;
61477;SDS011;47345;52.334;10.392;2023-02-14T14:51:42;11.60;;;5.50;;
61477;SDS011;47345;52.334;10.392;2023-02-14T14:54:15;8.50;;;5.70;;
61477;SDS011;47345;52.334;10.392;2023-02-14T14:56:53;9.00;;;5.80;;
61477;SDS011;47345;52.334;10.392;2023-02-14T14:59:30;9.20;;;6.10;;
61477;SDS011;47345;52.334;10.392;2023-02-14T15:02:18;9.10;;;5.90;;
61477;SDS011;47345;52.334;10.392;2023-02-14T15:04:55;9.70;;;6.10;;
61477;SDS011;47345;52.334;10.392;2023-02-14T15:07:40;10.10;;;6.50;;
61477;SDS011;47345;52.334;10.392;2023-02-14T15:10:25;11.00;;;6.20;;
61477;SDS011;47345;52.334;10.392;2023-02-14T15:13:00;10.40;;;6.00;;
61477;SDS011;47345;52.334;10.392;2023-02-14T15:15:50;8.30;;;6.00;;
61477;SDS011;47345;52.334;10.392;2023-02-14T15:18:22;8.40;;;5.90;;
61477;SDS011;47345;52.334;10.392;2023-02-14T15:20:56;9.90;;;6.70;;
61477;SDS011;47345;52.334;10.392;2023-02-14T15:23:30;9.60;;;6.10;;
61477;SDS011;47345;52.334;10.392;2023-02-14T15:26:03;11.10;;;6.70;;
61477;SDS011;47345;52.334;10.392;2023-02-14T15:28:36;9.00;;;6.00;;
61477;SDS011;47345;52.334;10.392;2023-02-14T15:31:08;11.00;;;6.90;;
61477;SDS011;47345;52.334;10.392;2023-02-14T15:33:43;14.30;;;7.60;;
61477;SDS011;47345;52.334;10.392;2023-02-14T15:36:17;9.40;;;6.70;;
61477;SDS011;47345;52.334;10.392;2023-02-14T15:38:55;13.50;;;7.30;;
61477;SDS011;47345;52.334;10.392;2023-02-14T15:41:29;14.70;;;8.90;;
61477;SDS011;47345;52.334;10.392;2023-02-14T15:44:01;19.10;;;9.40;;
61477;SDS011;47345;52.334;10.392;2023-02-14T15:46:34;17.50;;;10.10;;
61477;SDS011;47345;52.334;10.392;2023-02-14T15:49:09;16.00;;;8.90;;
61477;SDS011;47345;52.334;10.392;2023-02-14T15:51:45;17.20;;;9.10;;
61477;SDS011;47345;52.334;10.392;2023-02-14T15:54:20;12.50;;;7.70;;
61477;SDS011;47345;52.334;10.392;2023-02-14T15:56:58;10.50;;;7.10;;
61477;SDS011;47345;52.334;10.392;2023-02-14T15:59:33;11.10;;;7.50;;
61477;SDS011;47345;52.334;10.392;2023-02-14T16:02:17;13.20;;;7.90;;
61477;SDS011;47345;52.334;10.392;2023-02-14T16:05:02;11.20;;;6.90;;
61477;SDS011;47345;52.334;10.392;2023-02-14T16:07:46;13.30;;;8.10;;
61477;SDS011;47345;52.334;10.392;2023-02-14T16:10:26;12.00;;;7.70;;
61477;SDS011;47345;52.334;10.392;2023-02-14T16:13:01;14.20;;;9.00;;
61477;SDS011;47345;52.334;10.392;2023-02-14T16:15:34;13.20;;;8.60;;
61477;SDS011;47345;52.334;10.392;2023-02-14T16:18:17;14.20;;;8.80;;